Time;durP1;ratioP1;P1;durP2;ratioP2;P2;SDS_P1;SDS_P2;PMS_P1;PMS_P2;Temp;Humidity;BMP_temperature;BMP_pressure;BME280_temperature;BME280_humidity;BME280_pressure;Samples;Min_cycle;Max_cycle;Signal;HPM_P1;HPM_P2
2022/04/18 00:01:51;;;;;;;16.00;8.23;;;;;;;9.52;47.92;101970.09;5013812;28;20018;-42
2022/04/18 00:04:16;;;;;;;16.00;8.82;;;;;;;9.38;45.96;101967.13;4996450;28;20032;-41
2022/04/18 00:06:41;;;;;;;15.80;9.13;;;;;;;9.36;47.45;101970.81;5013836;28;20076;-41
2022/04/18 00:09:06;;;;;;;19.10;8.88;;;;;;;9.20;47.57;101967.13;5013658;28;20381;-41
2022/04/18 00:11:33;;;;;;;12.85;8.35;;;;;;;9.24;47.06;101967.66;4996118;28;20040;-41
2022/04/18 00:13:58;;;;;;;14.57;9.10;;;;;;;9.46;45.71;101964.56;5013643;28;20077;-40
2022/04/18 00:16:24;;;;;;;13.52;8.65;;;;;;;9.39;48.08;101960.19;5013626;28;20381;-41
2022/04/18 00:18:49;;;;;;;14.98;8.65;;;;;;;9.23;46.80;101964.22;4995956;28;20357;-41
2022/04/18 00:21:14;;;;;;;16.88;9.10;;;;;;;9.12;47.13;101966.22;5013622;28;20100;-40
2022/04/18 00:23:39;;;;;;;15.43;9.00;;;;;;;8.96;48.55;101964.34;5013941;28;20473;-42
2022/04/18 00:26:05;;;;;;;14.38;8.68;;;;;;;8.96;49.36;101959.97;4995932;28;20026;-41
2022/04/18 00:28:30;;;;;;;15.43;9.77;;;;;;;9.17;46.07;101967.41;5013428;28;20041;-42
2022/04/18 00:30:57;;;;;;;14.63;9.20;;;;;;;8.99;48.38;101964.84;5013406;28;20048;-41
2022/04/18 00:33:22;;;;;;;13.68;8.88;;;;;;;8.87;49.39;101963.44;5013127;28;20108;-41
2022/04/18 00:35:48;;;;;;;15.77;8.95;;;;;;;8.95;48.62;101962.72;5013057;28;20061;-42
2022/04/18 00:38:13;;;;;;;17.25;9.48;;;;;;;8.97;47.52;101963.38;5013205;28;20487;-41
2022/04/18 00:40:39;;;;;;;17.77;9.93;;;;;;;8.93;49.49;101937.06;5013342;28;20461;-42
2022/04/18 00:43:06;;;;;;;22.27;11.48;;;;;;;8.92;49.04;101956.09;5013097;28;20018;-42
2022/04/18 00:45:31;;;;;;;14.73;8.90;;;;;;;8.81;48.33;101948.56;5013310;28;20076;-41
2022/04/18 00:47:57;;;;;;;17.90;9.13;;;;;;;8.84;47.80;101953.44;5013350;28;20473;-42
2022/04/18 00:50:23;;;;;;;14.70;9.40;;;;;;;8.96;47.00;101948.88;5013545;28;20026;-42
2022/04/18 00:52:51;;;;;;;15.85;9.18;;;;;;;8.98;46.78;101949.53;4995582;28;20026;-40
2022/04/18 00:55:18;;;;;;;17.33;10.43;;;;;;;8.91;47.64;101946.72;5013320;28;20053;-40
2022/04/18 00:57:44;;;;;;;17.73;9.90;;;;;;;8.73;49.25;101954.44;5013168;28;20030;-43
2022/04/18 01:00:10;;;;;;;16.92;10.07;;;;;;;8.79;47.82;101956.44;5013544;28;20467;-40
2022/04/18 01:02:35;;;;;;;20.58;10.45;;;;;;;8.84;47.98;101950.06;5013106;28;20088;-40
2022/04/18 01:05:01;;;;;;;19.98;10.38;;;;;;;8.81;47.58;101941.66;4996398;28;20025;-41
2022/04/18 01:07:26;;;;;;;18.35;10.63;;;;;;;8.82;47.46;101943.25;5013359;28;20029;-41
2022/04/18 01:09:51;;;;;;;21.25;11.00;;;;;;;8.74;48.70;101945.75;5013657;28;20026;-49
2022/04/18 01:12:16;;;;;;;17.02;10.90;;;;;;;8.58;49.91;101940.44;5012833;28;20061;-41
2022/04/18 01:14:49;;;;;;;17.33;10.18;;;;;;;8.69;47.98;101942.81;4996256;28;20060;-41
2022/04/18 01:17:15;;;;;;;22.47;11.00;;;;;;;8.67;48.01;101938.75;5013135;28;20038;-41
2022/04/18 01:19:41;;;;;;;19.60;11.05;;;;;;;8.70;48.04;101931.53;4995996;28;20538;-41
2022/04/18 01:22:09;;;;;;;18.23;10.43;;;;;;;8.58;49.11;101930.16;5012998;28;20026;-41
2022/04/18 01:30:03;;;;;;;19.30;11.02;;;;;;;8.39;48.78;101928.47;5011797;28;20108;-40
2022/04/18 01:32:28;;;;;;;16.73;10.20;;;;;;;8.42;48.71;101935.91;5014555;28;20029;-40
2022/04/18 01:34:54;;;;;;;18.55;10.30;;;;;;;8.29;49.43;101931.09;5016444;28;20469;-41
2022/04/18 01:37:19;;;;;;;23.35;10.90;;;;;;;8.37;48.72;101932.94;5016440;28;20033;-41
2022/04/18 01:39:44;;;;;;;16.10;10.77;;;;;;;8.38;48.90;101916.53;5016065;28;20117;-41
2022/04/18 01:42:09;;;;;;;19.40;10.25;;;;;;;8.40;49.45;101927.53;5016482;28;20026;-40
2022/04/18 01:44:35;;;;;;;17.52;10.60;;;;;;;8.22;49.41;101924.06;5016252;28;20497;-41
2022/04/18 01:47:00;;;;;;;16.88;10.60;;;;;;;8.27;51.46;101927.03;4999153;28;20034;-40
2022/04/18 01:49:26;;;;;;;18.00;11.15;;;;;;;8.33;49.63;101922.09;5016012;28;20041;-40
2022/04/18 01:51:51;;;;;;;18.73;10.40;;;;;;;8.35;49.75;101927.13;5016293;28;20026;-40
2022/04/18 01:54:17;;;;;;;15.57;10.43;;;;;;;8.26;51.80;101926.22;5016027;28;20037;-40
2022/04/18 01:56:43;;;;;;;16.58;10.80;;;;;;;8.28;50.60;101916.56;5014731;28;20026;-40
2022/04/18 01:59:08;;;;;;;18.63;10.77;;;;;;;8.12;51.91;101921.56;5015953;28;20032;-40
2022/04/18 02:01:33;;;;;;;16.13;10.55;;;;;;;8.14;50.79;101920.47;5015873;28;20384;-40
2022/04/18 02:03:59;;;;;;;17.92;11.07;;;;;;;8.05;53.26;101923.88;5016060;28;20099;-40
2022/04/18 02:06:24;;;;;;;19.20;11.05;;;;;;;7.95;53.63;101932.59;5015913;28;20018;-42
2022/04/18 02:08:49;;;;;;;20.40;10.95;;;;;;;7.96;53.41;101924.72;5015844;28;20045;-42
2022/04/18 02:11:15;;;;;;;18.20;11.52;;;;;;;7.93;52.30;101924.19;5015629;28;20053;-42
2022/04/18 02:13:40;;;;;;;19.33;11.38;;;;;;;7.95;52.72;101922.31;5015377;28;20059;-40
2022/04/18 02:16:06;;;;;;;18.33;11.32;;;;;;;7.76;52.25;101913.69;5015538;28;20022;-40
2022/04/18 02:18:31;;;;;;;25.38;11.15;;;;;;;7.81;51.86;101914.06;5015554;28;20014;-41
2022/04/18 02:20:56;;;;;;;20.80;11.00;;;;;;;7.79;52.14;101913.41;5014026;28;20036;-40
2022/04/18 02:23:22;;;;;;;19.77;11.13;;;;;;;7.57;53.02;101908.63;5013709;28;20080;-40
2022/04/18 02:25:47;;;;;;;19.38;10.98;;;;;;;7.64;52.51;101910.47;4996454;28;20077;-40
2022/04/18 02:28:13;;;;;;;17.73;11.00;;;;;;;7.63;52.36;101913.19;5014770;28;20041;-41
2022/04/18 02:30:38;;;;;;;21.55;11.60;;;;;;;7.82;51.94;101920.03;5014863;28;20026;-41
2022/04/18 02:33:03;;;;;;;19.40;10.85;;;;;;;7.77;51.89;101907.59;5015169;28;20022;-40
2022/04/18 02:35:29;;;;;;;18.77;11.25;;;;;;;7.74;52.60;101909.63;5015399;28;20029;-40
2022/04/18 02:37:54;;;;;;;18.77;11.25;;;;;;;7.79;52.98;101915.16;5015148;28;20026;-41
2022/04/18 02:40:20;;;;;;;18.38;11.80;;;;;;;7.50;53.38;101905.75;4997933;28;20489;-40
2022/04/18 02:42:45;;;;;;;20.95;11.30;;;;;;;7.42;53.68;101905.66;5015768;28;20076;-43
2022/04/18 02:45:14;;;;;;;18.05;10.88;;;;;;;7.50;55.23;101905.75;5014967;28;20569;-39
2022/04/18 02:47:40;;;;;;;20.17;11.25;;;;;;;7.44;54.75;101902.00;5014815;28;20114;-40
2022/04/18 02:50:06;;;;;;;16.75;10.80;;;;;;;7.41;54.71;101899.69;5014885;28;20045;-40
2022/04/18 02:52:32;;;;;;;18.75;10.98;;;;;;;7.43;54.31;101895.22;5014728;28;20418;-39
2022/04/18 02:54:58;;;;;;;17.27;11.23;;;;;;;7.44;55.07;101883.19;5015105;28;20029;-40
2022/04/18 02:57:23;;;;;;;19.70;11.40;;;;;;;7.34;56.68;101887.53;5014716;28;20103;-41
2022/04/18 02:59:48;;;;;;;16.55;11.07;;;;;;;7.29;55.76;101897.44;5014694;28;20480;-40
2022/04/18 03:02:13;;;;;;;19.35;11.23;;;;;;;7.24;55.85;101893.50;5015113;28;20022;-40
2022/04/18 03:04:39;;;;;;;17.92;11.02;;;;;;;7.20;56.98;101884.44;5014617;28;20022;-41
2022/04/18 03:07:04;;;;;;;18.02;11.02;;;;;;;7.15;56.14;101888.38;5014845;28;20033;-40
2022/04/18 03:09:30;;;;;;;20.20;11.02;;;;;;;7.12;56.71;101878.38;5014463;28;20100;-41
2022/04/18 03:11:56;;;;;;;20.27;11.32;;;;;;;7.06;56.74;101886.63;5014770;28;20022;-40
2022/04/18 03:14:22;;;;;;;20.77;10.98;;;;;;;7.20;56.42;101887.00;5014353;28;20500;-40
2022/04/18 03:16:47;;;;;;;16.20;10.55;;;;;;;7.05;56.55;101877.28;5014343;28;20034;-40
2022/04/18 03:19:13;;;;;;;19.40;11.02;;;;;;;6.99;58.51;101876.91;5014019;28;20040;-41
2022/04/18 03:21:38;;;;;;;16.23;10.30;;;;;;;7.04;56.94;101875.66;5013922;28;20041;-40
2022/04/18 03:24:04;;;;;;;15.60;9.63;;;;;;;7.15;55.61;101871.19;4979435;28;20029;-41
2022/04/18 03:26:29;;;;;;;15.88;10.00;;;;;;;7.28;55.81;101870.91;5014352;28;20117;-40
2022/04/18 03:28:55;;;;;;;16.02;10.10;;;;;;;7.27;56.83;101871.03;5014413;28;20032;-40
2022/04/18 03:31:20;;;;;;;16.75;10.07;;;;;;;7.21;58.08;101875.78;5014304;28;20342;-40
2022/04/18 03:33:46;;;;;;;17.08;10.30;;;;;;;7.15;57.95;101867.81;5014803;28;20028;-41
2022/04/18 03:41:39;;;;;;;18.85;9.57;;;;;;;7.02;57.76;101870.69;5014306;28;20029;-40
2022/04/18 03:44:04;;;;;;;16.67;9.27;;;;;;;7.09;55.99;101869.16;5013859;28;20033;-40
2022/04/18 03:46:30;;;;;;;16.77;9.07;;;;;;;7.23;58.20;101863.59;4996206;28;20042;-39
2022/04/18 03:48:55;;;;;;;15.60;9.30;;;;;;;7.15;59.12;101866.03;5014030;28;20080;-40
2022/04/18 03:51:20;;;;;;;13.77;9.15;;;;;;;7.13;60.22;101862.78;5012409;28;20026;-40
2022/04/18 03:53:45;;;;;;;14.85;8.90;;;;;;;7.18;56.65;101864.97;5013403;28;20380;-41
2022/04/18 03:56:11;;;;;;;15.07;8.75;;;;;;;7.22;55.99;101856.00;5014055;28;20073;-39
2022/04/18 03:58:36;;;;;;;15.85;9.00;;;;;;;7.19;56.45;101864.00;5013670;28;20026;-40
2022/04/18 04:01:01;;;;;;;14.57;8.52;;;;;;;7.14;57.76;101861.88;5013695;28;20431;-39
2022/04/18 04:03:26;;;;;;;14.52;8.57;;;;;;;6.98;57.76;101841.84;5013888;28;20025;-40
2022/04/18 04:05:53;;;;;;;13.07;8.35;;;;;;;7.20;56.60;101853.59;5013626;28;20030;-40
2022/04/18 04:08:22;;;;;;;12.45;7.25;;;;;;;7.28;55.01;101852.06;5013803;28;20157;-40
2022/04/18 04:10:49;;;;;;;13.05;8.20;;;;;;;7.24;55.81;101847.22;5013693;28;20218;-41
2022/04/18 04:13:14;;;;;;;16.00;7.95;;;;;;;7.14;55.68;101854.16;5013850;28;20038;-40
2022/04/18 04:15:39;;;;;;;16.90;8.55;;;;;;;7.13;58.93;101864.56;5013950;28;20026;-42
2022/04/18 04:18:05;;;;;;;12.65;8.55;;;;;;;6.97;60.20;101867.69;5013416;28;20392;-40
2022/04/18 04:20:30;;;;;;;15.82;8.57;;;;;;;6.87;60.48;101867.69;5013574;28;20061;-40
2022/04/18 04:22:55;;;;;;;12.75;7.72;;;;;;;6.86;58.72;101860.94;5013583;28;20030;-41
2022/04/18 04:25:21;;;;;;;17.48;8.73;;;;;;;6.96;58.10;101864.31;4995637;28;20033;-41
2022/04/18 04:27:46;;;;;;;13.32;8.57;;;;;;;6.88;58.35;101850.53;5013357;28;20026;-41
2022/04/18 04:30:12;;;;;;;12.85;8.15;;;;;;;6.90;57.41;101849.44;5013281;28;20022;-41
2022/04/18 04:32:37;;;;;;;15.18;8.10;;;;;;;6.93;58.57;101859.47;5012839;28;20050;-40
2022/04/18 04:35:03;;;;;;;15.90;8.27;;;;;;;7.01;61.04;101854.41;5013511;28;20030;-41
2022/04/18 04:37:28;;;;;;;15.60;8.40;;;;;;;6.86;60.99;101868.66;5013399;28;20037;-41
2022/04/18 04:39:53;;;;;;;14.10;8.23;;;;;;;6.66;60.43;101861.88;5013211;28;20373;-41
2022/04/18 04:42:19;;;;;;;12.35;8.00;;;;;;;6.69;62.14;101867.56;5013131;28;20026;-40
2022/04/18 04:44:45;;;;;;;15.15;8.20;;;;;;;6.74;59.77;101862.03;4995503;28;20432;-41
2022/04/18 04:47:11;;;;;;;17.80;8.35;;;;;;;6.85;61.12;101863.63;5013133;28;20026;-42
2022/04/18 04:49:36;;;;;;;13.13;8.50;;;;;;;6.85;60.81;101859.31;4995907;28;20045;-41
2022/04/18 04:52:03;;;;;;;12.82;8.35;;;;;;;6.78;62.85;101860.78;5013054;28;20022;-40
2022/04/18 04:54:29;;;;;;;13.77;8.02;;;;;;;6.80;61.39;101868.38;5012989;28;20083;-40
2022/04/18 04:56:54;;;;;;;12.77;7.80;;;;;;;6.75;59.81;101861.06;5012640;28;20030;-41
2022/04/18 04:59:19;;;;;;;13.75;8.05;;;;;;;6.84;60.79;101872.28;5012965;28;20415;-41
2022/04/18 05:01:45;;;;;;;13.68;8.30;;;;;;;6.69;60.23;101867.56;5013675;28;20014;-40
2022/04/18 05:04:10;;;;;;;12.85;8.05;;;;;;;6.73;59.54;101868.09;5013019;28;20045;-41
2022/04/18 05:06:35;;;;;;;15.15;8.57;;;;;;;6.77;60.37;101869.47;5014069;28;20350;-41
2022/04/18 05:09:00;;;;;;;16.33;7.80;;;;;;;6.78;61.06;101866.75;5016891;28;20021;-42
2022/04/18 05:11:26;;;;;;;12.27;8.18;;;;;;;6.76;60.17;101866.09;5016889;28;20022;-41
2022/04/18 05:13:51;;;;;;;12.07;7.82;;;;;;;6.80;58.68;101863.25;5016570;28;20118;-41
2022/04/18 05:16:16;;;;;;;12.32;7.30;;;;;;;6.80;57.19;101864.06;5016572;28;20053;-41
2022/04/18 05:18:42;;;;;;;12.43;6.97;;;;;;;6.89;56.89;101860.66;5016687;28;20030;-40
2022/04/18 05:21:07;;;;;;;11.00;7.60;;;;;;;7.01;56.04;101863.91;5016469;28;20032;-41
2022/04/18 05:23:32;;;;;;;12.65;7.22;;;;;;;7.21;55.82;101856.97;5016763;28;20029;-41
2022/04/18 05:25:58;;;;;;;10.25;7.05;;;;;;;7.27;56.58;101868.47;5016505;28;20481;-41
2022/04/18 05:28:23;;;;;;;9.77;6.88;;;;;;;7.20;55.17;101861.31;5016371;28;20022;-41
2022/04/18 05:30:48;;;;;;;11.75;7.10;;;;;;;7.23;55.33;101861.03;5016567;28;20026;-40
2022/04/18 05:33:14;;;;;;;16.60;7.05;;;;;;;7.25;55.06;101855.75;5016220;28;20026;-41
2022/04/18 05:35:39;;;;;;;10.50;6.32;;;;;;;7.39;54.60;101859.63;5016781;28;20036;-41
2022/04/18 05:38:04;;;;;;;11.80;7.03;;;;;;;7.50;54.32;101856.91;5016308;28;20030;-39
2022/04/18 05:40:31;;;;;;;10.40;6.30;;;;;;;7.62;54.26;101860.94;5016130;28;20486;-39
2022/04/18 05:42:56;;;;;;;12.30;6.45;;;;;;;7.55;54.15;101867.59;5016291;28;20029;-39
2022/04/18 05:45:22;;;;;;;11.68;6.28;;;;;;;7.38;53.95;101868.31;5016178;28;20369;-41
2022/04/18 05:47:47;;;;;;;11.52;6.55;;;;;;;7.67;53.66;101863.88;5016189;28;20433;-39
2022/04/18 05:50:13;;;;;;;12.18;6.60;;;;;;;7.65;53.41;101860.66;5016275;28;20026;-40
2022/04/18 05:52:38;;;;;;;12.63;6.50;;;;;;;7.67;53.19;101863.88;5016156;28;20104;-41
2022/04/18 05:55:04;;;;;;;15.13;6.00;;;;;;;7.90;52.56;101876.38;5016187;28;20022;-39
2022/04/18 05:57:29;;;;;;;13.52;6.88;;;;;;;8.05;52.28;101882.66;5015904;28;20081;-41
2022/04/18 05:59:54;;;;;;;14.38;7.03;;;;;;;8.60;51.16;101886.97;4998225;28;20018;-42
2022/04/18 06:02:20;;;;;;;12.52;6.20;;;;;;;11.53;47.75;101885.59;5016273;28;20053;-41
2022/04/18 06:04:45;;;;;;;11.77;5.82;;;;;;;17.89;35.72;101882.00;5015711;28;20022;-41
2022/04/18 06:07:10;;;;;;;7.90;5.00;;;;;;;19.41;28.00;101879.22;5015947;28;20132;-40
2022/04/18 06:09:36;;;;;;;7.60;4.85;;;;;;;21.63;25.20;101878.81;5016256;28;20061;-42
2022/04/18 06:12:02;;;;;;;6.30;4.75;;;;;;;21.96;23.84;101876.53;5015421;28;20092;-44
2022/04/18 06:14:27;;;;;;;7.68;4.60;;;;;;;21.24;24.10;101876.97;5015416;28;20111;-43
2022/04/18 06:16:52;;;;;;;8.98;4.63;;;;;;;22.16;23.16;101879.50;5015113;28;20385;-41
2022/04/18 06:19:18;;;;;;;8.68;4.28;;;;;;;22.46;22.74;101868.69;5015890;28;20022;-41
2022/04/18 06:21:43;;;;;;;10.48;4.32;;;;;;;21.67;23.61;101876.53;5015584;28;20481;-41
2022/04/18 06:24:09;;;;;;;7.03;4.07;;;;;;;21.90;23.17;101864.31;5015293;28;20072;-41
2022/04/18 06:26:34;;;;;;;7.40;4.03;;;;;;;21.91;22.88;101871.16;5015531;28;20021;-41
2022/04/18 06:28:59;;;;;;;6.75;4.10;;;;;;;23.24;22.18;101868.72;5015310;28;20284;-42
2022/04/18 06:31:25;;;;;;;5.40;3.80;;;;;;;23.97;20.82;101860.56;5015405;28;20092;-41
2022/04/18 06:33:51;;;;;;;5.57;3.90;;;;;;;23.72;20.50;101863.75;4997791;28;20288;-41
2022/04/18 06:36:17;;;;;;;8.52;4.13;;;;;;;24.16;20.51;101863.63;4997493;28;20021;-41
2022/04/18 06:38:42;;;;;;;6.75;3.83;;;;;;;24.60;20.26;101863.44;5016121;28;20326;-40
2022/04/18 06:41:09;;;;;;;5.13;3.50;;;;;;;24.64;20.43;101867.97;5015134;28;20026;-42
2022/04/18 06:43:34;;;;;;;8.02;4.10;;;;;;;23.72;20.90;101866.41;5013889;28;20408;-42
2022/04/18 06:45:59;;;;;;;5.70;3.55;;;;;;;23.81;20.70;101870.16;5014370;28;20029;-42
2022/04/18 06:48:25;;;;;;;5.13;3.50;;;;;;;23.99;20.57;101864.53;5013956;28;20030;-45
2022/04/18 06:50:50;;;;;;;6.07;3.90;;;;;;;25.86;18.84;101854.41;5015123;28;20624;-41
2022/04/18 06:53:15;;;;;;;5.35;3.47;;;;;;;25.40;19.24;101861.44;5014956;28;20029;-42
2022/04/18 06:58:25;;;;;;;4.35;3.30;;;;;;;25.23;19.58;101851.06;5015558;28;20268;-41
2022/04/18 07:00:50;;;;;;;5.63;3.30;;;;;;;25.05;19.12;101852.31;5014930;28;20022;-42
2022/04/18 07:03:16;;;;;;;5.07;3.25;;;;;;;26.36;18.05;101861.84;5013151;28;20401;-40
2022/04/18 07:05:41;;;;;;;6.38;3.40;;;;;;;26.38;17.83;101859.72;5014557;28;20108;-41
2022/04/18 07:08:07;;;;;;;5.10;3.22;;;;;;;26.50;18.13;101844.38;5014882;28;20089;-41
2022/04/18 07:10:33;;;;;;;5.00;3.17;;;;;;;25.88;18.33;101852.31;5014534;28;20033;-41
2022/04/18 07:12:58;;;;;;;4.93;3.15;;;;;;;25.09;19.13;101856.03;5014403;28;20045;-41
2022/04/18 07:15:23;;;;;;;7.43;3.20;;;;;;;27.01;17.48;101846.84;5014795;28;20021;-41
2022/04/18 07:17:49;;;;;;;5.07;2.78;;;;;;;25.81;18.34;101857.06;5014562;28;20026;-40
2022/04/18 07:20:14;;;;;;;5.10;3.08;;;;;;;26.32;18.46;101861.56;5014693;28;20049;-42
2022/04/18 07:22:39;;;;;;;4.97;3.00;;;;;;;27.16;17.36;101856.63;5014205;28;20052;-42
2022/04/18 07:25:05;;;;;;;5.38;3.00;;;;;;;26.39;17.55;101856.00;5015145;28;20327;-42
2022/04/18 07:27:31;;;;;;;7.40;3.03;;;;;;;27.95;16.29;101854.03;5014263;28;20045;-42
2022/04/18 07:29:56;;;;;;;4.65;2.80;;;;;;;26.90;17.37;101848.75;5013488;28;20381;-41
2022/04/18 07:32:22;;;;;;;4.57;2.93;;;;;;;26.79;16.93;101857.81;5014043;28;20107;-42
2022/04/18 07:34:47;;;;;;;4.97;2.70;;;;;;;27.16;16.73;101851.31;4996538;28;20285;-41
2022/04/18 07:37:13;;;;;;;5.23;2.93;;;;;;;26.47;17.08;101855.44;5012839;28;20029;-42
2022/04/18 07:39:38;;;;;;;6.13;2.92;;;;;;;26.88;16.57;101850.88;5013887;28;20283;-46
2022/04/18 07:42:04;;;;;;;4.30;2.70;;;;;;;27.04;16.70;101853.47;5013967;28;20018;-43
2022/04/18 07:44:29;;;;;;;4.53;2.70;;;;;;;27.31;16.38;101848.59;5012708;28;20052;-41
2022/04/18 07:46:55;;;;;;;3.28;2.53;;;;;;;26.69;16.65;101850.66;5012468;28;20376;-41
2022/04/18 07:49:20;;;;;;;6.50;2.65;;;;;;;26.04;17.04;101853.13;5013210;28;20028;-42
2022/04/18 07:51:46;;;;;;;9.52;2.70;;;;;;;25.15;17.82;101851.59;4995703;28;20029;-41
2022/04/18 07:54:17;;;;;;;3.42;2.33;;;;;;;24.57;17.59;101848.09;5013827;28;20088;-41
2022/04/18 07:56:43;;;;;;;5.30;2.38;;;;;;;25.15;17.71;101839.16;5013894;28;20025;-41
2022/04/18 07:59:09;;;;;;;6.10;2.40;;;;;;;24.92;17.45;101848.28;5013801;28;20034;-42
2022/04/18 08:01:34;;;;;;;5.85;3.45;;;;;;;23.87;18.79;101843.56;5013974;28;20125;-42
2022/04/18 08:04:00;;;;;;;5.00;2.80;;;;;;;24.15;18.76;101835.63;4996168;28;20540;-42
2022/04/18 08:06:26;;;;;;;4.63;2.47;;;;;;;25.14;18.15;101837.56;4995981;28;20052;-42
2022/04/18 08:08:51;;;;;;;6.20;2.33;;;;;;;23.59;18.88;101838.50;5013749;28;20492;-42
2022/04/18 08:11:17;;;;;;;3.72;2.50;;;;;;;24.11;18.94;101845.91;4995767;28;20030;-42
2022/04/18 08:13:44;;;;;;;4.85;2.35;;;;;;;22.25;19.80;101843.06;4995728;28;20034;-41
2022/04/18 08:16:11;;;;;;;3.90;2.10;;;;;;;22.01;20.38;101851.09;5014018;28;20044;-41
2022/04/18 08:18:44;;;;;;;5.07;2.67;;;;;;;22.45;20.30;101846.03;5013586;28;20029;-41
2022/04/18 08:21:09;;;;;;;4.05;2.60;;;;;;;21.35;22.18;101842.75;5013976;28;20075;-41
2022/04/18 08:23:35;;;;;;;3.95;2.30;;;;;;;22.47;20.57;101843.13;4995749;28;20358;-41
2022/04/18 08:26:01;;;;;;;5.28;2.47;;;;;;;22.00;21.28;101844.22;4995800;28;20116;-42
2022/04/18 08:28:27;;;;;;;6.38;2.50;;;;;;;20.61;22.74;101834.63;5013349;28;20385;-42
2022/04/18 08:30:53;;;;;;;4.70;2.35;;;;;;;21.17;21.82;101854.19;5013387;28;20045;-42
2022/04/18 08:33:19;;;;;;;4.72;2.50;;;;;;;20.28;22.72;101837.72;5013171;28;20021;-41
2022/04/18 08:35:44;;;;;;;3.55;2.33;;;;;;;19.73;23.58;101846.59;5013086;28;20483;-42
2022/04/18 08:38:10;;;;;;;4.38;2.55;;;;;;;20.20;23.50;101852.00;5012206;28;20036;-42
2022/04/18 08:40:36;;;;;;;4.63;2.50;;;;;;;19.31;24.42;101848.31;5013769;28;20037;-41
2022/04/18 08:43:02;;;;;;;3.50;2.53;;;;;;;19.89;24.50;101850.44;4999676;28;20026;-42
2022/04/18 08:45:27;;;;;;;5.20;2.60;;;;;;;19.19;24.71;101850.03;5017296;28;20028;-40
2022/04/18 08:53:29;;;;;;;5.40;2.80;;;;;;;20.51;23.56;101848.28;5017816;28;20060;-42
2022/04/18 08:55:56;;;;;;;4.30;2.42;;;;;;;20.04;24.21;101852.63;5017165;28;20026;-41
2022/04/18 08:58:22;;;;;;;6.57;2.50;;;;;;;20.75;24.40;101850.94;5016990;28;20128;-42
2022/04/18 09:00:48;;;;;;;4.13;2.42;;;;;;;20.22;24.26;101836.00;5017056;28;20030;-40
2022/04/18 09:03:13;;;;;;;6.00;2.80;;;;;;;20.27;24.07;101846.66;5000126;28;20025;-41
2022/04/18 09:05:39;;;;;;;6.22;2.80;;;;;;;19.75;25.25;101849.78;4999284;28;20104;-41
2022/04/18 09:08:07;;;;;;;4.93;2.80;;;;;;;19.39;26.42;101851.44;5017838;28;20033;-42
2022/04/18 09:10:34;;;;;;;4.13;2.80;;;;;;;19.19;26.50;101856.09;5016657;28;20084;-42
2022/04/18 09:13:04;;;;;;;5.22;3.10;;;;;;;19.47;26.47;101855.56;5016622;28;20042;-41
2022/04/18 09:15:33;;;;;;;6.65;3.63;;;;;;;18.09;28.27;101850.53;5016995;28;20432;-42
2022/04/18 09:18:20;;;;;;;6.80;3.10;;;;;;;19.05;27.63;101852.00;5016923;28;20036;-42
2022/04/18 09:20:54;;;;;;;6.13;3.08;;;;;;;19.54;26.80;101855.50;5017089;28;20109;-41
2022/04/18 09:23:27;;;;;;;5.13;3.13;;;;;;;18.62;27.72;101861.44;5016558;28;20026;-42
2022/04/18 09:25:53;;;;;;;4.50;3.00;;;;;;;19.04;27.34;101856.41;5016962;28;20022;-42
2022/04/18 09:28:22;;;;;;;7.30;3.22;;;;;;;19.67;26.70;101846.69;5016877;28;20092;-42
2022/04/18 09:30:56;;;;;;;4.88;2.80;;;;;;;19.78;28.57;101854.59;5015878;28;20026;-42
2022/04/18 09:33:21;;;;;;;5.82;3.08;;;;;;;19.92;25.96;101864.91;5016618;28;20030;-42
2022/04/18 09:35:47;;;;;;;9.77;3.40;;;;;;;18.87;27.22;101853.59;4999393;28;20022;-43
2022/04/18 09:38:16;;;;;;;4.82;3.10;;;;;;;18.96;27.15;101845.44;5016513;28;20112;-42
2022/04/18 09:40:43;;;;;;;4.63;3.10;;;;;;;18.98;27.96;101846.03;5016275;28;20017;-42
2022/04/18 09:43:08;;;;;;;4.32;3.20;;;;;;;19.75;27.00;101844.56;5016406;28;20022;-41
2022/04/18 09:45:33;;;;;;;4.28;2.95;;;;;;;20.04;26.44;101844.75;5016378;28;20428;-40
2022/04/18 09:48:01;;;;;;;4.53;2.90;;;;;;;20.16;26.01;101844.78;5016574;28;20021;-42
2022/04/18 09:53:22;;;;;;;4.53;2.80;;;;;;;20.04;27.28;101842.94;5015742;28;20041;-41
2022/04/18 09:55:50;;;;;;;5.10;3.00;;;;;;;20.19;25.87;101836.47;5016610;28;20025;-42
2022/04/18 09:58:16;;;;;;;4.10;2.85;;;;;;;20.79;25.19;101828.44;4998543;28;20456;-42
2022/04/18 10:00:42;;;;;;;5.80;2.97;;;;;;;20.17;26.49;101820.97;5015981;28;20060;-42
2022/04/18 10:03:08;;;;;;;4.20;2.90;;;;;;;20.72;26.51;101823.31;5015804;28;20026;-42
2022/04/18 10:05:34;;;;;;;5.65;3.17;;;;;;;21.15;25.33;101826.56;5015792;28;20388;-42
2022/04/18 10:08:03;;;;;;;4.72;3.08;;;;;;;21.47;24.71;101823.53;5015906;28;20105;-41
2022/04/18 10:10:32;;;;;;;4.88;2.90;;;;;;;20.51;25.69;101826.47;5015567;28;20034;-42
2022/04/18 10:12:57;;;;;;;4.47;2.88;;;;;;;20.64;25.63;101822.84;5015619;28;20038;-43
2022/04/18 10:15:23;;;;;;;4.85;3.00;;;;;;;20.69;25.82;101820.34;5015030;28;20429;-42
2022/04/18 10:17:50;;;;;;;3.50;2.80;;;;;;;20.86;25.70;101828.31;5015595;28;20076;-42
2022/04/18 10:20:40;;;;;;;9.65;2.80;;;;;;;21.05;25.52;101829.78;5015540;28;20077;-43
2022/04/18 10:23:05;;;;;;;4.20;3.00;;;;;;;21.27;25.39;101818.66;5015723;28;20025;-43
2022/04/18 10:25:48;;;;;;;5.07;2.97;;;;;;;21.81;25.37;101819.16;5015486;28;20029;-41
2022/04/18 10:28:25;;;;;;;4.07;2.80;;;;;;;21.61;24.69;101815.13;5015373;28;20265;-42
2022/04/18 10:31:00;;;;;;;6.20;2.90;;;;;;;21.53;24.59;101814.72;4998844;28;20038;-42
2022/04/18 10:33:26;;;;;;;4.32;3.00;;;;;;;20.97;25.32;101809.09;5015252;28;20156;-42
2022/04/18 10:36:02;;;;;;;7.45;2.90;;;;;;;20.92;25.70;101814.28;5015813;28;20030;-42
2022/04/18 10:38:31;;;;;;;6.03;3.03;;;;;;;21.41;24.50;101806.88;5015320;28;20475;-41
2022/04/18 10:41:15;;;;;;;7.22;2.63;;;;;;;22.46;24.73;101810.75;5016308;28;20022;-42
2022/04/18 10:44:01;;;;;;;3.63;2.40;;;;;;;22.30;22.81;101804.47;5015022;28;20036;-42
2022/04/18 10:46:27;;;;;;;4.03;2.55;;;;;;;22.32;23.38;101801.56;5016272;28;20022;-41
2022/04/18 10:49:23;;;;;;;3.78;2.58;;;;;;;22.01;23.17;101792.38;5015538;28;20022;-41
2022/04/18 10:51:51;;;;;;;5.28;2.50;;;;;;;22.21;23.28;101798.00;4999179;28;20049;-42
2022/04/18 10:54:17;;;;;;;3.53;2.20;;;;;;;21.59;22.19;101795.34;5015887;28;20060;-43
2022/04/18 10:57:05;;;;;;;4.60;2.08;;;;;;;20.75;21.58;101781.88;5015251;28;20101;-40
2022/04/18 10:59:31;;;;;;;4.70;2.20;;;;;;;21.05;22.28;101797.44;5013975;28;20041;-42
2022/04/18 11:01:59;;;;;;;3.42;2.40;;;;;;;20.62;22.89;101790.75;5014240;28;20033;-44
2022/04/18 11:04:27;;;;;;;3.42;2.40;;;;;;;20.56;23.04;101789.06;5013948;28;20030;-41
2022/04/18 11:07:06;;;;;;;5.88;2.80;;;;;;;21.36;22.80;101790.97;5014930;28;20061;-41
2022/04/18 11:09:37;;;;;;;4.40;2.50;;;;;;;21.52;22.83;101789.44;5015109;28;20030;-42
2022/04/18 11:12:06;;;;;;;3.40;2.65;;;;;;;20.70;23.14;101787.78;5014589;28;20025;-40
2022/04/18 11:15:00;;;;;;;3.92;2.47;;;;;;;21.03;22.56;101792.44;5014364;28;20509;-41
2022/04/18 11:17:26;;;;;;;3.53;2.50;;;;;;;21.44;22.75;101785.38;5015157;28;20037;-41
2022/04/18 11:19:51;;;;;;;5.63;2.43;;;;;;;21.51;21.91;101788.63;5014651;28;20030;-42
2022/04/18 11:22:21;;;;;;;4.32;2.50;;;;;;;20.92;22.44;101791.44;5013744;28;20308;-40
2022/04/18 11:24:47;;;;;;;5.97;2.65;;;;;;;21.21;22.59;101788.06;4997023;28;20036;-41
2022/04/18 11:27:20;;;;;;;3.10;2.30;;;;;;;21.45;22.05;101783.53;5014454;28;20029;-41
2022/04/18 11:29:51;;;;;;;4.55;2.47;;;;;;;22.22;22.09;101783.81;5014519;28;20022;-42
2022/04/18 11:32:21;;;;;;;5.07;2.40;;;;;;;21.54;21.55;101790.00;5014381;28;20033;-42
2022/04/18 11:34:48;;;;;;;4.72;2.42;;;;;;;21.88;21.99;101782.97;5014281;28;20026;-42
2022/04/18 11:37:22;;;;;;;4.32;2.50;;;;;;;21.32;21.34;101782.75;5014579;28;20030;-41
2022/04/18 11:39:58;;;;;;;2.65;2.10;;;;;;;21.13;21.46;101776.84;4995998;28;20026;-41
2022/04/18 11:42:27;;;;;;;3.95;2.10;;;;;;;22.20;21.91;101770.06;5012756;28;20026;-42
2022/04/18 11:44:54;;;;;;;7.65;2.47;;;;;;;21.58;20.92;101778.00;5013551;28;20022;-42